Time;durP1;ratioP1;P1;durP2;ratioP2;P2;SDS_P1;SDS_P2;PMS_P1;PMS_P2;Temp;Humidity;BMP_temperature;BMP_pressure;BME280_temperature;BME280_humidity;BME280_pressure;Samples;Min_cycle;Max_cycle;Signal;HPM_P1;HPM_P2
2023/10/27 00:01:22;;;;;;;14.35;2.75;;;;;;;12.62;98.95;97755.84;6141517;23;20076;-86
2023/10/27 00:03:49;;;;;;;12.32;2.65;;;;;;;12.64;99.04;97762.63;6141764;23;20451;-87
2023/10/27 00:06:17;;;;;;;13.18;2.90;;;;;;;12.64;98.99;97767.94;6115022;23;20025;-87
2023/10/27 00:08:44;;;;;;;14.95;3.53;;;;;;;12.64;99.09;97767.94;6114115;23;20060;-87
2023/10/27 00:11:11;;;;;;;11.60;2.25;;;;;;;12.63;99.06;97765.50;6114348;23;20028;-87
2023/10/27 00:13:38;;;;;;;11.00;2.53;;;;;;;12.64;98.95;97759.94;6141228;23;20080;-87
2023/10/27 00:16:09;;;;;;;10.50;2.55;;;;;;;12.62;98.63;97763.84;6115725;23;20030;-87
2023/10/27 00:18:37;;;;;;;10.88;2.40;;;;;;;12.64;98.93;97761.78;6141082;23;20022;-86
2023/10/27 00:21:04;;;;;;;14.20;2.35;;;;;;;12.64;99.23;97761.78;6139944;23;20030;-87
2023/10/27 00:23:32;;;;;;;18.15;2.58;;;;;;;12.65;99.35;97761.59;6141020;23;20400;-87
2023/10/27 00:26:00;;;;;;;9.55;1.85;;;;;;;12.66;99.14;97765.09;6090824;23;20369;-86
2023/10/27 00:28:27;;;;;;;8.80;1.88;;;;;;;12.65;98.86;97766.94;6140715;23;20056;-87
2023/10/27 00:30:54;;;;;;;10.90;2.28;;;;;;;12.64;99.13;97756.47;6065928;23;20033;-87
2023/10/27 00:33:21;;;;;;;13.35;2.10;;;;;;;12.64;99.08;97756.47;6115061;23;20029;-87
2023/10/27 00:35:52;;;;;;;13.32;2.00;;;;;;;12.64;98.84;97761.78;6090937;23;20515;-87
2023/10/27 00:38:19;;;;;;;14.80;4.15;;;;;;;12.64;99.09;97751.97;6143270;23;20385;-87
2023/10/27 00:40:46;;;;;;;17.88;2.38;;;;;;;12.65;99.08;97750.16;6114548;23;20025;-87
2023/10/27 00:43:16;;;;;;;19.88;2.88;;;;;;;12.59;98.59;97746.41;6138612;23;20033;-87
2023/10/27 00:45:49;;;;;;;13.38;2.33;;;;;;;12.58;98.68;97742.13;6115603;23;20030;-86
2023/10/27 00:48:17;;;;;;;10.65;2.28;;;;;;;12.58;98.63;97734.94;6141960;23;20427;-87
2023/10/27 00:50:47;;;;;;;11.90;2.45;;;;;;;12.58;98.73;97740.28;6140485;23;20080;-86
2023/10/27 00:53:18;;;;;;;14.85;2.35;;;;;;;12.59;98.61;97744.59;6116933;23;20104;-87
2023/10/27 00:55:45;;;;;;;15.00;2.55;;;;;;;12.60;98.74;97742.75;6092997;23;20460;-87
2023/10/27 00:58:12;;;;;;;23.00;2.83;;;;;;;12.61;99.10;97741.72;6116665;23;20091;-87
2023/10/27 01:00:39;;;;;;;12.82;2.08;;;;;;;12.61;99.19;97741.72;6116102;23;20466;-87
2023/10/27 01:03:05;;;;;;;16.77;3.05;;;;;;;12.60;99.23;97740.91;6092225;23;20030;-87
2023/10/27 01:05:34;;;;;;;8.60;2.15;;;;;;;12.60;99.11;97740.09;6140581;23;20392;-87
2023/10/27 01:08:01;;;;;;;11.98;3.00;;;;;;;12.60;99.17;97740.91;6091983;23;20092;-87
2023/10/27 01:10:28;;;;;;;12.93;2.63;;;;;;;12.60;99.36;97740.09;6120675;23;20068;-87
2023/10/27 01:12:55;;;;;;;8.95;2.42;;;;;;;12.60;99.17;97737.44;6092266;23;20459;-87
2023/10/27 01:15:21;;;;;;;9.57;1.83;;;;;;;12.61;99.32;97739.06;6116358;23;20032;-87
2023/10/27 01:17:48;;;;;;;10.50;2.00;;;;;;;12.60;99.19;97734.75;6092279;23;20285;-87
2023/10/27 01:20:15;;;;;;;12.18;2.67;;;;;;;12.59;99.31;97736.59;6142108;23;20342;-87
2023/10/27 01:22:46;;;;;;;7.50;1.73;;;;;;;12.57;99.41;97733.31;6141286;23;20330;-87
2023/10/27 01:25:14;;;;;;;9.00;1.90;;;;;;;12.57;99.61;97724.53;6091089;23;20115;-87
2023/10/27 01:27:42;;;;;;;10.07;2.05;;;;;;;12.59;99.62;97728.63;6115480;23;20025;-87
2023/10/27 01:30:09;;;;;;;9.65;2.03;;;;;;;12.56;99.75;97715.69;6116474;23;20518;-87
2023/10/27 01:32:37;;;;;;;10.27;1.65;;;;;;;12.57;99.46;97714.69;6091825;23;20022;-87
2023/10/27 01:35:05;;;;;;;10.77;2.20;;;;;;;12.58;99.52;97718.16;6141869;23;20036;-87
2023/10/27 01:37:32;;;;;;;9.10;2.47;;;;;;;12.55;99.68;97706.06;6067424;23;20080;-87
2023/10/27 01:39:59;;;;;;;11.20;1.90;;;;;;;12.56;99.58;97712.22;6115525;23;20674;-88
2023/10/27 01:42:26;;;;;;;15.05;2.72;;;;;;;12.58;99.52;97720.81;6115874;23;20027;-87
2023/10/27 01:44:53;;;;;;;7.35;2.13;;;;;;;12.56;99.49;97717.53;6141707;23;20104;-87
2023/10/27 01:47:20;;;;;;;9.93;2.42;;;;;;;12.56;99.68;97717.53;6141334;23;20017;-87
2023/10/27 01:49:48;;;;;;;11.05;3.08;;;;;;;12.57;99.57;97703.22;6067601;23;20029;-87
2023/10/27 01:52:15;;;;;;;11.90;2.15;;;;;;;12.58;99.57;97707.50;6091893;23;20022;-87
2023/10/27 01:54:42;;;;;;;15.23;3.25;;;;;;;12.57;99.76;97708.53;6141329;23;20025;-88
2023/10/27 01:57:09;;;;;;;6.47;2.15;;;;;;;12.56;99.70;97701.56;6067312;23;20407;-86
2023/10/27 01:59:36;;;;;;;8.57;2.35;;;;;;;12.55;99.83;97699.94;6116314;23;20080;-87
2023/10/27 02:02:03;;;;;;;12.90;2.50;;;;;;;12.57;100.00;97697.91;6090876;23;20022;-88
2023/10/27 02:04:34;;;;;;;11.95;2.65;;;;;;;12.57;99.99;97700.56;6091368;23;20029;-87
2023/10/27 02:07:03;;;;;;;7.68;3.38;;;;;;;12.54;99.91;97695.59;6115252;23;20030;-87
2023/10/27 02:09:30;;;;;;;12.60;3.70;;;;;;;12.56;100.00;97696.22;6140902;23;20031;-87
2023/10/27 02:11:57;;;;;;;11.15;3.03;;;;;;;12.53;100.00;97697.47;6114894;23;20503;-87
2023/10/27 02:14:27;;;;;;;15.05;4.45;;;;;;;12.54;100.00;97700.94;6115631;23;20025;-87
2023/10/27 02:16:54;;;;;;;17.02;3.30;;;;;;;12.55;100.00;97699.94;6091214;23;20033;-87
2023/10/27 02:19:21;;;;;;;15.20;2.55;;;;;;;12.58;100.00;97692.34;6141619;23;20033;-87
2023/10/27 02:21:48;;;;;;;7.13;2.72;;;;;;;12.60;100.00;97689.50;6091738;23;20107;-87
2023/10/27 02:24:16;;;;;;;7.28;2.83;;;;;;;12.59;100.00;97688.69;6145312;23;20035;-87
2023/10/27 02:26:43;;;;;;;11.25;2.42;;;;;;;12.60;100.00;97692.97;6093384;23;20036;-87
2023/10/27 02:29:10;;;;;;;10.27;2.08;;;;;;;12.63;100.00;97685.63;6098670;23;20017;-86
2023/10/27 02:31:37;;;;;;;10.48;2.67;;;;;;;12.63;100.00;97686.44;6091854;23;20124;-87
2023/10/27 02:34:04;;;;;;;10.75;2.55;;;;;;;12.66;100.00;97685.22;6115510;23;20177;-87
2023/10/27 02:36:31;;;;;;;11.88;2.13;;;;;;;12.67;100.00;97682.34;6142825;23;20040;-88
2023/10/27 02:38:57;;;;;;;7.63;2.40;;;;;;;12.66;100.00;97672.72;6090508;23;20369;-88
2023/10/27 02:41:24;;;;;;;9.00;2.13;;;;;;;12.68;99.89;97675.19;6140312;23;20325;-87
2023/10/27 02:43:51;;;;;;;7.88;2.22;;;;;;;12.70;99.83;97676.63;6139864;23;20032;-87
2023/10/27 02:46:18;;;;;;;8.82;1.80;;;;;;;12.67;99.83;97674.38;6115806;23;20021;-86
2023/10/27 02:48:45;;;;;;;5.40;2.35;;;;;;;12.70;99.64;97673.16;6140496;23;20021;-88
2023/10/27 02:51:15;;;;;;;7.25;1.80;;;;;;;12.68;99.44;97673.34;6115808;23;20029;-86
2023/10/27 02:53:42;;;;;;;12.30;2.40;;;;;;;12.70;99.37;97676.63;6140008;23;20486;-86
2023/10/27 02:56:09;;;;;;;9.25;1.80;;;;;;;12.70;99.34;97675.81;6142094;23;20066;-86
2023/10/27 02:58:37;;;;;;;9.88;2.05;;;;;;;12.70;99.11;97671.28;6140637;23;20380;-88
2023/10/27 03:01:10;;;;;;;12.57;2.15;;;;;;;12.66;99.05;97666.56;6115600;23;20025;-87
2023/10/27 03:03:41;;;;;;;13.57;2.20;;;;;;;12.71;99.11;97669.44;6117544;23;20390;-87
2023/10/27 03:06:08;;;;;;;8.43;1.85;;;;;;;12.69;99.11;97669.63;6142266;23;20033;-86
2023/10/27 03:08:35;;;;;;;6.80;1.80;;;;;;;12.71;99.07;97666.78;6115514;23;20029;-87
2023/10/27 03:11:02;;;;;;;9.23;2.00;;;;;;;12.68;99.10;97667.19;6142010;23;20028;-87
2023/10/27 03:13:32;;;;;;;7.05;1.90;;;;;;;12.70;98.76;97683.78;6091590;23;20014;-87
2023/10/27 03:16:00;;;;;;;14.57;2.28;;;;;;;12.68;98.99;97675.19;6139273;23;20029;-86
2023/10/27 03:18:27;;;;;;;9.15;2.03;;;;;;;12.70;98.75;97679.28;6114723;23;20497;-87
2023/10/27 03:20:55;;;;;;;13.05;1.95;;;;;;;12.69;99.10;97677.63;6141734;23;20030;-86
2023/10/27 03:23:23;;;;;;;7.70;2.20;;;;;;;12.67;99.10;97678.84;6142032;23;20073;-87
2023/10/27 03:25:50;;;;;;;8.55;1.90;;;;;;;12.67;99.06;97671.69;6141667;23;20033;-87
2023/10/27 03:28:19;;;;;;;11.10;1.90;;;;;;;12.66;98.58;97674.56;6143923;23;20021;-87
2023/10/27 03:30:48;;;;;;;12.52;2.42;;;;;;;12.69;98.72;97676.81;6091635;23;20348;-87
2023/10/27 03:33:15;;;;;;;4.85;1.48;;;;;;;12.66;98.85;97659.41;6126094;23;20117;-88
2023/10/27 03:35:43;;;;;;;12.93;1.83;;;;;;;12.66;98.93;97662.06;6142405;23;20025;-87
2023/10/27 03:38:12;;;;;;;8.20;1.38;;;;;;;12.67;98.80;97663.72;6140690;23;20029;-88
2023/10/27 03:40:41;;;;;;;8.75;1.70;;;;;;;12.67;98.90;97658.38;6066653;23;20337;-87
2023/10/27 03:43:08;;;;;;;8.55;2.15;;;;;;;12.65;99.11;97660.44;6065439;23;20018;-88
2023/10/27 03:45:35;;;;;;;8.35;1.60;;;;;;;12.64;99.10;97652.63;6141022;23;20033;-87
2023/10/27 03:48:03;;;;;;;7.05;1.83;;;;;;;12.63;99.37;97645.69;6113121;23;20037;-87
2023/10/27 03:50:30;;;;;;;9.52;3.00;;;;;;;12.63;99.48;97657.13;6089445;23;20029;-88
2023/10/27 03:52:56;;;;;;;7.30;2.15;;;;;;;12.64;99.50;97649.97;6114709;23;20025;-88
2023/10/27 03:55:23;;;;;;;11.55;2.95;;;;;;;12.62;99.89;97644.03;6066265;23;20401;-87
2023/10/27 03:57:52;;;;;;;11.07;2.45;;;;;;;12.62;99.83;97652.00;6119671;23;20371;-88
2023/10/27 04:00:19;;;;;;;13.98;2.35;;;;;;;12.63;99.99;97659.81;6139705;23;20023;-87
2023/10/27 04:02:46;;;;;;;14.30;2.05;;;;;;;12.62;99.61;97660.84;6094647;23;20364;-88
2023/10/27 04:05:13;;;;;;;6.50;1.90;;;;;;;12.63;99.80;97665.13;6090440;23;20121;-87
2023/10/27 04:07:40;;;;;;;9.70;1.95;;;;;;;12.62;99.61;97660.00;6092316;23;20032;-87
2023/10/27 04:10:07;;;;;;;5.72;1.55;;;;;;;12.62;99.32;97670.66;6114801;23;20030;-87
2023/10/27 04:12:34;;;;;;;11.02;2.13;;;;;;;12.61;99.42;97661.84;6140269;23;20033;-87
2023/10/27 04:15:01;;;;;;;5.07;1.98;;;;;;;12.59;99.38;97659.41;6115181;23;20351;-87
2023/10/27 04:17:28;;;;;;;14.20;2.78;;;;;;;12.59;99.64;97647.91;6137933;23;20022;-87
2023/10/27 04:19:54;;;;;;;13.15;3.03;;;;;;;12.55;99.70;97644.84;6115649;23;20663;-87
2023/10/27 04:22:21;;;;;;;8.68;1.80;;;;;;;12.57;99.97;97652.63;6092023;23;20462;-87
2023/10/27 04:24:48;;;;;;;7.25;2.03;;;;;;;12.56;100.00;97648.31;6092194;23;20025;-88
2023/10/27 04:27:16;;;;;;;7.22;2.65;;;;;;;12.54;100.00;97651.19;6093146;23;20033;-87
2023/10/27 04:29:42;;;;;;;17.15;3.72;;;;;;;12.51;100.00;97646.25;6068038;23;20554;-88
2023/10/27 04:32:10;;;;;;;7.05;2.35;;;;;;;12.49;100.00;97643.00;6115208;23;20108;-88
2023/10/27 04:34:36;;;;;;;7.00;2.65;;;;;;;12.53;100.00;97640.75;6117602;23;20088;-87
2023/10/27 04:37:03;;;;;;;10.30;2.80;;;;;;;12.48;100.00;97641.34;6116783;23;20029;-88
2023/10/27 04:39:30;;;;;;;11.30;2.53;;;;;;;12.51;100.00;97646.25;6092310;23;20448;-86
2023/10/27 04:41:57;;;;;;;11.75;2.63;;;;;;;12.50;100.00;97643.81;6115572;23;20408;-87
2023/10/27 04:44:25;;;;;;;19.67;3.20;;;;;;;12.49;100.00;97652.81;6138919;23;20350;-87
2023/10/27 04:46:51;;;;;;;9.07;2.55;;;;;;;12.44;100.00;97639.28;6115587;23;20033;-87
2023/10/27 04:49:18;;;;;;;10.20;2.45;;;;;;;12.47;100.00;97646.88;6067454;23;20018;-87
2023/10/27 04:51:45;;;;;;;8.43;2.08;;;;;;;12.46;100.00;97645.22;6091004;23;20031;-87
2023/10/27 04:54:12;;;;;;;9.15;2.15;;;;;;;12.45;100.00;97647.06;6141579;23;20088;-87
2023/10/27 04:56:39;;;;;;;10.43;2.42;;;;;;;12.45;100.00;97647.06;6068636;23;20037;-88
2023/10/27 04:59:05;;;;;;;13.07;2.63;;;;;;;12.47;100.00;97660.19;6091413;23;20040;-87
2023/10/27 05:01:32;;;;;;;9.65;2.95;;;;;;;12.46;100.00;97659.34;6116928;23;20021;-87
2023/10/27 05:03:59;;;;;;;6.50;2.70;;;;;;;12.45;100.00;97664.88;6141048;23;20025;-87
2023/10/27 05:06:26;;;;;;;5.40;2.25;;;;;;;12.43;100.00;97666.94;6091608;23;20456;-86
2023/10/27 05:08:53;;;;;;;7.63;2.40;;;;;;;12.44;100.00;97671.22;6068486;23;20009;-86
2023/10/27 05:11:19;;;;;;;6.15;2.22;;;;;;;12.44;100.00;97677.38;6140666;23;20029;-87
2023/10/27 05:13:46;;;;;;;7.95;1.63;;;;;;;12.46;100.00;97671.84;6091960;23;20028;-87
2023/10/27 05:16:13;;;;;;;3.13;1.58;;;;;;;12.44;100.00;97665.91;6116688;23;20018;-87
2023/10/27 05:18:40;;;;;;;7.05;1.58;;;;;;;12.44;100.00;97665.91;6091007;23;20039;-87
2023/10/27 05:21:16;;;;;;;7.57;1.85;;;;;;;12.41;100.00;97663.63;6091994;23;20033;-86
2023/10/27 05:23:43;;;;;;;5.45;1.73;;;;;;;12.44;100.00;97671.22;6116853;23;20033;-87
2023/10/27 05:26:10;;;;;;;10.20;1.98;;;;;;;12.42;100.00;97674.09;6115934;23;20017;-88
2023/10/27 05:28:37;;;;;;;10.88;2.20;;;;;;;12.43;100.00;97670.41;6140435;23;20030;-87
2023/10/27 05:31:04;;;;;;;10.85;2.40;;;;;;;12.43;100.00;97672.25;6090027;23;20032;-87
2023/10/27 05:33:30;;;;;;;4.72;2.47;;;;;;;12.44;100.00;97674.72;6067178;23;20105;-88
2023/10/27 05:35:57;;;;;;;11.57;3.30;;;;;;;12.43;100.00;97682.91;6141810;23;20026;-88
2023/10/27 05:38:24;;;;;;;6.95;4.03;;;;;;;12.41;100.00;97668.97;6090307;23;20041;-89
2023/10/27 05:40:51;;;;;;;13.02;5.65;;;;;;;12.40;100.00;97665.50;6115114;23;20033;-88
2023/10/27 05:43:18;;;;;;;11.85;5.70;;;;;;;12.43;100.00;97677.56;6115130;23;20797;-87
2023/10/27 05:45:45;;;;;;;13.63;5.32;;;;;;;12.42;100.00;97679.41;6141161;23;20025;-87
2023/10/27 05:48:12;;;;;;;8.90;4.85;;;;;;;12.41;100.00;97679.59;6114702;23;20040;-88
2023/10/27 05:50:40;;;;;;;6.95;3.85;;;;;;;12.42;100.00;97682.09;6114859;23;20064;-88
2023/10/27 05:53:06;;;;;;;17.58;3.97;;;;;;;12.40;100.00;97688.63;6114604;23;20021;-87
2023/10/27 05:55:33;;;;;;;11.05;2.65;;;;;;;12.40;100.00;97686.78;6089845;23;20037;-88
2023/10/27 05:58:00;;;;;;;9.52;2.70;;;;;;;12.36;100.00;97678.38;6090501;23;20194;-88
2023/10/27 06:00:29;;;;;;;10.70;3.22;;;;;;;12.40;100.00;97694.75;6117882;23;20538;-87
2023/10/27 06:02:55;;;;;;;12.27;3.60;;;;;;;12.40;100.00;97683.31;6065895;23;20499;-88
2023/10/27 06:05:23;;;;;;;8.15;3.97;;;;;;;12.38;100.00;97684.31;6089427;23;20037;-88
2023/10/27 06:07:50;;;;;;;11.40;3.65;;;;;;;12.40;100.00;97696.59;6065446;23;20032;-88
2023/10/27 06:10:18;;;;;;;10.60;3.60;;;;;;;12.40;100.00;97696.59;6137892;23;20025;-87
2023/10/27 06:12:45;;;;;;;20.65;4.72;;;;;;;12.41;100.00;97700.91;6141494;23;20096;-87
2023/10/27 06:15:11;;;;;;;8.80;3.45;;;;;;;12.38;100.00;97697.63;6115019;23;20117;-87
2023/10/27 06:17:39;;;;;;;10.38;4.72;;;;;;;12.41;100.00;97703.56;6140081;23;20087;-88
2023/10/27 06:20:06;;;;;;;13.90;4.53;;;;;;;12.36;100.00;97694.34;6138898;23;20025;-88
2023/10/27 06:22:44;;;;;;;12.73;4.00;;;;;;;12.39;100.00;97703.78;6095645;23;20095;-87
2023/10/27 06:25:11;;;;;;;20.42;6.60;;;;;;;12.40;100.00;97697.44;6090286;23;20115;-88
2023/10/27 06:27:38;;;;;;;12.85;4.88;;;;;;;12.40;100.00;97701.94;6117917;23;20026;-87
2023/10/27 06:30:06;;;;;;;9.70;4.50;;;;;;;12.40;100.00;97700.09;6108165;23;20082;-87
2023/10/27 06:32:33;;;;;;;8.32;4.88;;;;;;;12.40;100.00;97705.41;6113647;23;20031;-86
2023/10/27 06:35:00;;;;;;;13.05;4.22;;;;;;;12.40;100.00;97702.75;6139492;23;21810;-87
2023/10/27 06:37:27;;;;;;;12.15;3.78;;;;;;;12.38;100.00;97705.59;6138668;23;20048;-87
2023/10/27 06:39:58;;;;;;;10.50;3.78;;;;;;;12.39;100.00;97717.09;6114120;23;20060;-87
2023/10/27 06:42:26;;;;;;;10.95;3.42;;;;;;;12.38;100.00;97712.78;6138106;23;20577;-87
2023/10/27 06:44:53;;;;;;;9.05;4.25;;;;;;;12.38;100.00;97710.09;6141245;23;20040;-87
2023/10/27 06:47:20;;;;;;;12.43;4.20;;;;;;;12.41;100.00;97708.88;6115698;23;20036;-87
2023/10/27 06:49:49;;;;;;;10.75;4.05;;;;;;;12.40;100.00;97713.41;6139770;23;20025;-87
2023/10/27 06:52:16;;;;;;;8.20;3.90;;;;;;;12.41;100.00;97717.69;6090655;23;20333;-86
2023/10/27 06:54:43;;;;;;;15.90;5.63;;;;;;;12.43;100.00;97715.66;6116484;23;20017;-87
2023/10/27 06:57:10;;;;;;;10.55;4.50;;;;;;;12.41;100.00;97722.19;6090673;23;20022;-86
2023/10/27 06:59:37;;;;;;;7.72;4.10;;;;;;;12.42;100.00;97723.84;6115259;23;20040;-88
2023/10/27 07:02:04;;;;;;;11.10;3.85;;;;;;;12.44;100.00;97719.97;6142434;23;20021;-87
2023/10/27 07:04:31;;;;;;;9.23;3.80;;;;;;;12.44;100.00;97714.66;6090250;23;20455;-87
2023/10/27 07:06:58;;;;;;;6.43;2.55;;;;;;;12.45;100.00;97713.63;6139254;23;20364;-87
2023/10/27 07:09:26;;;;;;;5.15;2.85;;;;;;;12.46;100.00;97714.44;6141170;23;20470;-87
2023/10/27 07:11:53;;;;;;;9.68;3.08;;;;;;;12.42;100.00;97714.03;6067093;23;20026;-87
2023/10/27 07:14:22;;;;;;;5.45;2.92;;;;;;;12.42;100.00;97706.03;6114176;23;20514;-86
2023/10/27 07:16:51;;;;;;;3.30;2.20;;;;;;;12.43;100.00;97699.69;6114578;23;20026;-87
2023/10/27 07:19:19;;;;;;;3.97;2.25;;;;;;;12.43;100.00;97706.84;6115257;23;20028;-86
2023/10/27 07:21:47;;;;;;;4.10;2.67;;;;;;;12.43;100.00;97696.22;6114756;23;20029;-86
2023/10/27 07:24:14;;;;;;;6.88;2.75;;;;;;;12.45;100.00;97702.16;6114321;23;20029;-87
2023/10/27 07:26:41;;;;;;;5.13;2.15;;;;;;;12.48;100.00;97688.44;6114041;23;20029;-86
2023/10/27 07:29:08;;;;;;;6.85;2.00;;;;;;;12.47;100.00;97694.78;6114711;23;20535;-87
2023/10/27 07:31:35;;;;;;;4.57;2.85;;;;;;;12.48;100.00;97709.72;6090369;23;20027;-87
2023/10/27 07:34:02;;;;;;;4.07;1.95;;;;;;;12.46;100.00;97709.09;6115763;23;21473;-87
2023/10/27 07:36:29;;;;;;;4.97;2.53;;;;;;;12.49;100.00;97709.53;6140895;23;20029;-87
2023/10/27 07:38:57;;;;;;;3.25;1.85;;;;;;;12.51;100.00;97704.81;6138690;23;20030;-87
2023/10/27 07:41:24;;;;;;;3.78;1.52;;;;;;;12.52;100.00;97713.66;6114504;23;20037;-87
2023/10/27 07:43:51;;;;;;;8.48;1.73;;;;;;;12.52;100.00;97701.16;6116756;23;20018;-86
2023/10/27 07:46:17;;;;;;;2.38;1.42;;;;;;;12.55;100.00;97705.25;6116377;23;20083;-87
2023/10/27 07:48:44;;;;;;;3.50;1.92;;;;;;;12.55;100.00;97702.59;6115543;23;20018;-87
2023/10/27 07:51:11;;;;;;;3.80;1.50;;;;;;;12.57;100.00;97696.06;6115223;23;20097;-87
2023/10/27 07:53:38;;;;;;;6.40;1.38;;;;;;;12.57;100.00;97703.22;6114488;23;20028;-87
2023/10/27 07:56:08;;;;;;;2.15;1.40;;;;;;;12.59;100.00;97706.47;6116014;23;20364;-86
2023/10/27 07:58:35;;;;;;;6.28;1.83;;;;;;;12.62;100.00;97711.44;6140907;23;20032;-88
2023/10/27 08:01:05;;;;;;;2.80;1.60;;;;;;;12.63;100.00;97715.72;6140192;23;20128;-87
2023/10/27 08:03:33;;;;;;;2.58;1.10;;;;;;;12.64;100.00;97708.53;6140822;23;20030;-87
2023/10/27 08:06:07;;;;;;;4.80;2.53;;;;;;;12.66;100.00;97706.50;6140191;23;20036;-88
2023/10/27 08:08:37;;;;;;;2.15;1.33;;;;;;;12.70;100.00;97715.75;6068557;23;20021;-88
2023/10/27 08:11:07;;;;;;;1.30;1.08;;;;;;;12.72;100.00;97716.34;6140831;23;20033;-87
2023/10/27 08:13:33;;;;;;;1.08;0.88;;;;;;;12.73;100.00;97720.66;6091978;23;20088;-87
2023/10/27 08:16:01;;;;;;;1.38;0.68;;;;;;;12.76;100.00;97718.41;6116191;23;20030;-88
2023/10/27 08:18:28;;;;;;;2.25;0.80;;;;;;;12.77;100.00;97722.72;6090978;23;20028;-88
2023/10/27 08:20:56;;;;;;;1.25;0.80;;;;;;;12.75;100.00;97723.94;6139798;23;20033;-87
2023/10/27 08:23:23;;;;;;;1.33;0.90;;;;;;;12.77;100.00;97735.19;6115839;23;20468;-87
2023/10/27 08:25:51;;;;;;;1.17;0.80;;;;;;;12.76;100.00;97739.72;6115905;23;20017;-88
2023/10/27 08:28:18;;;;;;;1.20;0.85;;;;;;;12.76;100.00;97750.38;6114894;23;20028;-88
2023/10/27 08:30:45;;;;;;;2.03;0.95;;;;;;;12.77;100.00;97743.19;6115647;23;20045;-87
2023/10/27 08:33:14;;;;;;;1.73;0.80;;;;;;;12.78;99.66;97756.31;6091169;23;20021;-87
2023/10/27 08:35:41;;;;;;;0.70;0.70;;;;;;;12.78;99.61;97758.16;6091670;23;20060;-87
2023/10/27 08:38:08;;;;;;;1.23;0.60;;;;;;;12.79;99.78;97762.47;6091451;23;20026;-87
2023/10/27 08:40:35;;;;;;;1.33;0.70;;;;;;;12.81;98.69;97779.88;6068890;23;20092;-86
2023/10/27 08:43:05;;;;;;;2.88;0.82;;;;;;;12.78;98.71;97776.81;6115512;23;20032;-85
2023/10/27 08:45:32;;;;;;;0.75;0.70;;;;;;;12.71;98.66;97791.94;6116113;23;20368;-88
2023/10/27 08:48:03;;;;;;;1.17;0.85;;;;;;;12.74;98.47;97803.00;6090880;23;20033;-88
2023/10/27 08:50:31;;;;;;;4.55;0.85;;;;;;;12.71;98.17;97807.91;6141065;23;20348;-87
2023/10/27 08:52:59;;;;;;;2.22;0.85;;;;;;;12.70;98.50;97804.44;6115311;23;20033;-87
2023/10/27 08:55:26;;;;;;;1.35;0.90;;;;;;;12.70;98.74;97819.59;6116529;23;20017;-88
2023/10/27 08:57:55;;;;;;;1.73;0.95;;;;;;;12.71;98.81;97814.06;6091712;23;20037;-88
2023/10/27 09:00:22;;;;;;;2.72;0.80;;;;;;;12.70;98.60;97820.41;6115433;23;20032;-87
2023/10/27 09:02:49;;;;;;;2.88;0.90;;;;;;;12.71;98.50;97829.22;6114962;23;20101;-88
2023/10/27 09:05:17;;;;;;;2.60;1.15;;;;;;;12.71;98.69;97832.69;6091270;23;20357;-87
2023/10/27 09:07:45;;;;;;;2.88;0.93;;;;;;;12.67;98.10;97826.16;6092043;23;20075;-87
2023/10/27 09:10:13;;;;;;;1.27;0.98;;;;;;;12.68;97.99;97832.28;6091971;23;20097;-86
2023/10/27 09:12:41;;;;;;;0.98;0.80;;;;;;;12.70;97.46;97857.69;6142410;23;20030;-87
2023/10/27 09:15:09;;;;;;;2.22;1.48;;;;;;;12.69;98.16;97840.06;6091678;23;20025;-87
2023/10/27 09:17:53;;;;;;;4.45;1.50;;;;;;;12.64;97.70;97845.16;6091384;23;20031;-87
2023/10/27 09:20:21;;;;;;;3.65;1.10;;;;;;;12.60;97.50;97838.59;6115813;23;20431;-87
2023/10/27 09:23:06;;;;;;;3.22;0.85;;;;;;;12.59;96.94;97856.41;6115575;23;20025;-87
2023/10/27 09:25:34;;;;;;;1.13;0.82;;;;;;;12.68;98.04;97858.91;6141346;23;20026;-87
2023/10/27 09:28:05;;;;;;;3.60;0.90;;;;;;;12.66;97.33;97871.59;6139406;23;20029;-87
2023/10/27 09:30:37;;;;;;;1.90;1.00;;;;;;;12.66;97.09;97877.72;6141198;23;20044;-87
2023/10/27 09:33:13;;;;;;;1.95;0.90;;;;;;;12.66;97.14;97876.91;6143809;23;20036;-87
2023/10/27 09:35:41;;;;;;;4.13;0.90;;;;;;;12.69;97.48;97874.69;6139783;23;20065;-87
2023/10/27 09:38:12;;;;;;;2.38;0.93;;;;;;;12.70;97.10;97883.50;6141861;23;20786;-88
2023/10/27 09:40:41;;;;;;;3.75;1.10;;;;;;;12.69;97.08;97888.00;6148360;23;20025;-87
2023/10/27 09:43:09;;;;;;;1.75;1.08;;;;;;;12.73;97.23;97891.09;6114619;23;20520;-87
2023/10/27 09:45:37;;;;;;;2.15;0.80;;;;;;;12.76;97.22;97891.50;6067745;23;20126;-87
2023/10/27 09:48:06;;;;;;;2.75;0.88;;;;;;;12.78;97.12;97886.81;6140901;23;20345;-86
2023/10/27 09:50:33;;;;;;;0.82;0.70;;;;;;;12.81;97.35;97891.75;6141600;23;20108;-87
2023/10/27 09:53:01;;;;;;;1.17;0.93;;;;;;;12.81;97.42;97891.75;6066628;23;20037;-88
2023/10/27 09:55:28;;;;;;;1.95;0.82;;;;;;;12.84;97.30;97889.72;6067324;23;20041;-87
2023/10/27 09:57:55;;;;;;;1.52;0.90;;;;;;;12.88;97.45;97889.13;6115897;23;20047;-86
2023/10/27 10:00:25;;;;;;;5.55;1.10;;;;;;;12.87;96.97;97892.78;6066848;23;20029;-86
2023/10/27 10:02:52;;;;;;;1.17;0.95;;;;;;;12.86;96.97;97893.00;6067010;23;20032;-86
2023/10/27 10:05:19;;;;;;;0.77;0.77;;;;;;;12.88;96.88;97897.13;6115140;23;20028;-87
2023/10/27 10:07:52;;;;;;;6.85;1.10;;;;;;;12.86;96.97;97903.66;6143529;23;20030;-88
2023/10/27 10:10:30;;;;;;;2.58;1.10;;;;;;;12.85;96.56;97902.00;6142069;23;20021;-87
2023/10/27 10:13:18;;;;;;;3.05;1.30;;;;;;;12.87;96.55;97906.09;6138930;23;20393;-87
2023/10/27 10:15:46;;;;;;;2.70;1.17;;;;;;;12.90;96.76;97911.06;6114282;23;20025;-86
2023/10/27 10:18:25;;;;;;;5.30;1.10;;;;;;;12.93;96.36;97912.50;6090294;23;20076;-87
2023/10/27 10:20:56;;;;;;;3.95;1.10;;;;;;;13.03;96.83;97929.75;6140658;23;20022;-87
2023/10/27 10:23:46;;;;;;;4.05;1.00;;;;;;;13.01;96.58;97910.47;6139826;23;20052;-87
2023/10/27 10:26:13;;;;;;;2.40;0.90;;;;;;;13.09;96.67;97925.47;6113168;23;20394;-87
2023/10/27 10:28:41;;;;;;;2.28;0.70;;;;;;;13.17;96.33;97927.97;6140117;23;20105;-87
2023/10/27 10:31:09;;;;;;;2.38;1.17;;;;;;;13.23;96.52;97921.84;6089299;23;20029;-85
2023/10/27 10:33:36;;;;;;;4.80;1.10;;;;;;;13.30;96.13;97934.41;6113590;23;20017;-87
2023/10/27 10:36:22;;;;;;;1.33;0.82;;;;;;;13.27;94.89;97929.47;6069125;23;20045;-87
2023/10/27 10:39:04;;;;;;;1.58;1.10;;;;;;;13.34;95.21;97936.47;6088785;23;20108;-87
2023/10/27 10:41:53;;;;;;;2.13;0.90;;;;;;;13.34;94.72;97936.47;6090017;23;20021;-87
2023/10/27 10:44:19;;;;;;;3.03;0.80;;;;;;;13.39;95.20;97941.22;6115180;23;20558;-87
2023/10/27 10:46:46;;;;;;;4.45;1.20;;;;;;;13.39;95.15;97949.22;6115348;23;20396;-87
2023/10/27 10:49:27;;;;;;;2.38;0.90;;;;;;;13.31;94.03;97947.53;6114498;23;20041;-86
2023/10/27 10:51:57;;;;;;;2.55;1.00;;;;;;;13.33;94.99;97944.66;6138500;23;20100;-87
2023/10/27 10:54:32;;;;;;;4.18;1.25;;;;;;;13.34;94.78;97947.13;6140205;23;20021;-87
2023/10/27 10:57:03;;;;;;;3.90;0.77;;;;;;;13.35;94.67;97940.78;6113989;23;20352;-87
2023/10/27 10:59:30;;;;;;;1.20;1.02;;;;;;;13.39;95.14;97946.53;6113860;23;20031;-87
2023/10/27 11:01:57;;;;;;;3.92;1.00;;;;;;;13.40;94.99;97940.19;6140414;23;20110;-88
2023/10/27 11:04:29;;;;;;;2.75;1.27;;;;;;;13.40;94.76;97938.31;6089761;23;20017;-87
2023/10/27 11:07:08;;;;;;;3.40;1.08;;;;;;;13.45;95.18;97943.88;6140385;23;20017;-87
2023/10/27 11:09:34;;;;;;;8.30;0.93;;;;;;;13.46;94.83;97923.41;6065643;23;20325;-86
2023/10/27 11:12:03;;;;;;;2.60;1.30;;;;;;;13.49;94.87;97936.31;6093120;23;20033;-87
2023/10/27 11:14:38;;;;;;;3.35;1.02;;;;;;;13.42;94.12;97924.81;6120557;23;20052;-86
2023/10/27 11:17:07;;;;;;;2.03;1.08;;;;;;;13.46;94.77;97921.53;6140062;23;20029;-86
2023/10/27 11:19:34;;;;;;;2.80;1.10;;;;;;;13.47;94.84;97917.03;6114531;23;20021;-87
2023/10/27 11:22:01;;;;;;;2.25;0.90;;;;;;;13.46;94.25;97918.88;6065874;23;20025;-87
2023/10/27 11:24:28;;;;;;;5.47;1.23;;;;;;;13.43;93.91;97916.63;6114251;23;20021;-87
2023/10/27 11:26:55;;;;;;;2.75;0.90;;;;;;;13.44;93.92;97914.78;6149269;23;20524;-87
2023/10/27 11:29:22;;;;;;;5.03;0.90;;;;;;;13.47;94.18;97914.38;6122679;23;20026;-87
2023/10/27 11:31:49;;;;;;;2.05;0.90;;;;;;;13.52;94.45;97930.59;6115483;23;20045;-87